Time;durP1;ratioP1;P1;durP2;ratioP2;P2;SDS_P1;SDS_P2;PMS_P1;PMS_P2;Temp;Humidity;BMP_temperature;BMP_pressure;BME280_temperature;BME280_humidity;BME280_pressure;Samples;Min_cycle;Max_cycle;Signal;HPM_P1;HPM_P2
2021/09/11 00:01:36;;;;;;;12.00;9.83;;;;;;;;;;4868550;29;20221;-77
2021/09/11 00:04:45;;;;;;;13.23;10.23;;;;;;;;;;4879049;29;20182;-77
2021/09/11 00:07:50;;;;;;;10.97;8.90;;;;;;;;;;4879174;29;20213;-77
2021/09/11 00:10:55;;;;;;;11.43;9.63;;;;;;;;;;4868188;29;20225;-77
2021/09/11 00:13:59;;;;;;;10.87;9.77;;;;;;;;;;4879792;29;20657;-77
2021/09/11 00:17:04;;;;;;;10.30;9.30;;;;;;;;;;4880596;29;20206;-76
2021/09/11 00:20:10;;;;;;;13.73;10.17;;;;;;;;;;4882421;29;20190;-77
2021/09/11 00:23:14;;;;;;;12.87;9.87;;;;;;;;;;4871994;29;20185;-77
2021/09/11 00:26:18;;;;;;;13.00;10.37;;;;;;;;;;4882153;29;20198;-77
2021/09/11 00:28:57;;;;;;;11.40;10.03;;;;;;;;;;5114507;27;20815;-78
2021/09/11 00:32:03;;;;;;;13.80;11.13;;;;;;;;;;5099066;28;20226;-78
2021/09/11 00:35:10;;;;;;;13.93;10.60;;;;;;;;;;5093047;28;20178;-78
2021/09/11 00:38:14;;;;;;;11.37;10.17;;;;;;;;;;5105015;28;20195;-78
2021/09/11 00:41:18;;;;;;;11.97;10.73;;;;;;;;;;5069807;28;20542;-78
2021/09/11 00:44:23;;;;;;;15.33;11.87;;;;;;;;;;5092587;28;20506;-78
2021/09/11 00:47:27;;;;;;;12.03;10.83;;;;;;;;;;5092411;28;20202;-78
2021/09/11 00:50:32;;;;;;;12.73;11.27;;;;;;;;;;5092212;28;20183;-78
2021/09/11 00:53:36;;;;;;;14.60;11.40;;;;;;;;;;5081167;28;20183;-77
2021/09/11 00:56:40;;;;;;;13.33;11.67;;;;;;;;;;5092885;28;20638;-78
2021/09/11 00:59:44;;;;;;;13.67;12.27;;;;;;;;;;5092919;28;20637;-78
2021/09/11 01:02:48;;;;;;;13.23;11.37;;;;;;;;;;5094113;28;20175;-78
2021/09/11 01:05:52;;;;;;;12.27;11.07;;;;;;;;;;5092305;28;20183;-78
2021/09/11 01:08:57;;;;;;;14.03;11.47;;;;;;;;;;5104143;28;20203;-78
2021/09/11 01:12:01;;;;;;;12.67;11.33;;;;;;;;;;5092308;28;20218;-77
2021/09/11 01:15:08;;;;;;;13.60;11.77;;;;;;;;;;5082381;28;20634;-77
2021/09/11 01:18:15;;;;;;;13.37;11.13;;;;;;;;;;5080881;28;20175;-78
2021/09/11 01:21:19;;;;;;;12.07;10.73;;;;;;;;;;5080820;28;20211;-78
2021/09/11 01:24:23;;;;;;;15.17;10.73;;;;;;;;;;5093360;28;20182;-78
2021/09/11 01:27:28;;;;;;;13.17;11.17;;;;;;;;;;5105732;28;20583;-78
2021/09/11 01:30:32;;;;;;;12.67;11.13;;;;;;;;;;5070914;28;20187;-78
2021/09/11 01:33:36;;;;;;;13.93;11.33;;;;;;;;;;5081592;28;20183;-78
2021/09/11 01:36:40;;;;;;;12.30;11.03;;;;;;;;;;5069091;28;20174;-78
2021/09/11 01:39:47;;;;;;;12.33;10.97;;;;;;;;;;5070788;28;20171;-78
2021/09/11 01:42:52;;;;;;;13.50;11.07;;;;;;;;;;5067278;28;20183;-78
2021/09/11 01:45:57;;;;;;;11.57;10.37;;;;;;;;;;5067457;28;20634;-78
2021/09/11 01:49:01;;;;;;;12.77;10.60;;;;;;;;;;5078465;28;20203;-78
2021/09/11 01:52:06;;;;;;;12.67;11.37;;;;;;;;;;5078733;28;20223;-78
2021/09/11 01:55:12;;;;;;;13.63;10.93;;;;;;;;;;5090203;28;20195;-78
2021/09/11 01:58:16;;;;;;;12.53;10.83;;;;;;;;;;5066999;28;20187;-78
2021/09/11 02:01:20;;;;;;;12.40;11.10;;;;;;;;;;5067278;28;20234;-78
2021/09/11 02:04:25;;;;;;;13.77;10.63;;;;;;;;;;5079154;28;20176;-78
2021/09/11 02:07:29;;;;;;;12.23;11.00;;;;;;;;;;5066298;28;20219;-78
2021/09/11 02:10:34;;;;;;;13.17;10.73;;;;;;;;;;5077907;28;20187;-78
2021/09/11 02:13:38;;;;;;;11.37;10.17;;;;;;;;;;5089697;28;20179;-78
2021/09/11 02:16:42;;;;;;;12.03;10.83;;;;;;;;;;5077858;28;20203;-77
2021/09/11 02:19:47;;;;;;;13.50;10.77;;;;;;;;;;5078164;28;20200;-78
2021/09/11 02:22:52;;;;;;;12.43;10.43;;;;;;;;;;5078289;28;20179;-78
2021/09/11 02:25:56;;;;;;;13.20;10.70;;;;;;;;;;5066903;28;20634;-78
2021/09/11 02:29:02;;;;;;;11.87;10.50;;;;;;;;;;5077591;28;20204;-78
2021/09/11 02:32:07;;;;;;;12.57;10.73;;;;;;;;;;5077208;28;20217;-78
2021/09/11 02:35:11;;;;;;;11.73;10.43;;;;;;;;;;5064892;28;20194;-78
2021/09/11 02:38:15;;;;;;;12.70;11.30;;;;;;;;;;5066668;28;20176;-78
2021/09/11 02:41:19;;;;;;;13.23;11.80;;;;;;;;;;5066847;28;20219;-77
2021/09/11 02:44:23;;;;;;;12.67;11.43;;;;;;;;;;5077995;28;20183;-78
2021/09/11 02:47:28;;;;;;;14.43;11.57;;;;;;;;;;5066730;28;20179;-78
2021/09/11 02:50:32;;;;;;;14.07;11.90;;;;;;;;;;5065922;28;20187;-78
2021/09/11 02:53:36;;;;;;;13.60;11.63;;;;;;;;;;5089125;28;20187;-78
2021/09/11 02:56:40;;;;;;;14.90;12.03;;;;;;;;;;5066097;28;20195;-78
2021/09/11 02:59:44;;;;;;;14.87;10.97;;;;;;;;;;5088980;28;20191;-78
2021/09/11 03:02:48;;;;;;;13.83;12.33;;;;;;;;;;5077243;28;20179;-78
2021/09/11 03:05:52;;;;;;;13.50;12.20;;;;;;;;;;5065416;28;20180;-77
2021/09/11 03:08:56;;;;;;;13.97;12.27;;;;;;;;;;5076445;28;20196;-78
2021/09/11 03:12:01;;;;;;;13.43;12.03;;;;;;;;;;5076576;28;20223;-78
2021/09/11 03:15:05;;;;;;;13.47;12.07;;;;;;;;;;5065228;28;20195;-78
2021/09/11 03:18:10;;;;;;;14.40;12.67;;;;;;;;;;5088585;28;20199;-77
2021/09/11 03:21:14;;;;;;;14.17;12.53;;;;;;;;;;5066122;28;20223;-78
2021/09/11 03:24:18;;;;;;;14.23;12.13;;;;;;;;;;5078140;28;20538;-78
2021/09/11 03:27:22;;;;;;;13.80;12.37;;;;;;;;;;5064900;28;20577;-78
2021/09/11 03:30:26;;;;;;;15.13;12.23;;;;;;;;;;5065012;28;20183;-78
2021/09/11 03:33:30;;;;;;;15.77;13.00;;;;;;;;;;5077067;28;20180;-78
2021/09/11 03:36:34;;;;;;;14.10;12.53;;;;;;;;;;5075821;28;20190;-77
2021/09/11 03:39:38;;;;;;;13.93;12.43;;;;;;;;;;5064293;28;20183;-77
2021/09/11 03:42:42;;;;;;;13.77;12.37;;;;;;;;;;5076872;28;20222;-78
2021/09/11 03:45:47;;;;;;;13.90;12.50;;;;;;;;;;5065295;28;20187;-78
2021/09/11 03:48:51;;;;;;;14.73;12.17;;;;;;;;;;5077165;28;20568;-78
2021/09/11 03:51:55;;;;;;;20.13;13.53;;;;;;;;;;5076061;28;20569;-78
2021/09/11 03:55:04;;;;;;;20.07;14.37;;;;;;;;;;5076725;28;20186;-78
2021/09/11 03:58:09;;;;;;;18.70;13.50;;;;;;;;;;5065426;28;20198;-78
2021/09/11 04:01:13;;;;;;;15.30;13.37;;;;;;;;;;5064044;28;20546;-78
2021/09/11 04:04:17;;;;;;;14.13;12.63;;;;;;;;;;5076573;28;20195;-78
2021/09/11 04:07:21;;;;;;;15.90;14.07;;;;;;;;;;5075513;28;20673;-78
2021/09/11 04:10:26;;;;;;;16.37;14.30;;;;;;;;;;5064166;28;20174;-78
2021/09/11 04:13:30;;;;;;;17.77;13.90;;;;;;;;;;5064812;28;20190;-78
2021/09/11 04:16:34;;;;;;;15.60;13.77;;;;;;;;;;5076650;28;20187;-78
2021/09/11 04:19:38;;;;;;;15.43;13.83;;;;;;;;;;5075582;28;20179;-78
2021/09/11 04:22:43;;;;;;;21.20;14.60;;;;;;;;;;5087242;28;20211;-78
2021/09/11 04:25:47;;;;;;;16.13;14.03;;;;;;;;;;5064283;28;20186;-78
2021/09/11 04:28:51;;;;;;;15.90;13.73;;;;;;;;;;5063592;28;20224;-78
2021/09/11 04:31:55;;;;;;;16.47;14.77;;;;;;;;;;5063627;28;20251;-78
2021/09/11 04:35:01;;;;;;;17.47;15.60;;;;;;;;;;5051790;28;20198;-78
2021/09/11 04:38:05;;;;;;;15.67;14.07;;;;;;;;;;5086241;28;20538;-78
2021/09/11 04:41:09;;;;;;;16.43;14.63;;;;;;;;;;5075412;28;20213;-78
2021/09/11 04:44:13;;;;;;;18.40;14.80;;;;;;;;;;5076511;28;20728;-78
2021/09/11 04:47:18;;;;;;;18.33;13.97;;;;;;;;;;5054117;28;20194;-78
2021/09/11 04:50:22;;;;;;;16.63;14.43;;;;;;;;;;5064975;28;20172;-80
2021/09/11 04:53:26;;;;;;;15.50;14.00;;;;;;;;;;5076781;28;20183;-78
2021/09/11 04:56:30;;;;;;;15.67;13.87;;;;;;;;;;5077039;28;20206;-78
2021/09/11 04:59:34;;;;;;;15.53;13.77;;;;;;;;;;5064257;28;20206;-78
2021/09/11 05:02:38;;;;;;;17.47;14.40;;;;;;;;;;5056058;28;20252;-78
2021/09/11 05:05:43;;;;;;;16.37;14.67;;;;;;;;;;5057122;28;20184;-78
2021/09/11 05:08:47;;;;;;;16.40;14.53;;;;;;;;;;5055953;28;20235;-78
2021/09/11 05:11:51;;;;;;;16.90;15.10;;;;;;;;;;5055625;28;20231;-78
2021/09/11 05:14:55;;;;;;;15.53;13.90;;;;;;;;;;5067889;22;20230;-81
2021/09/11 05:17:59;;;;;;;16.20;14.60;;;;;;;;;;5041886;28;20180;-80
2021/09/11 05:21:05;;;;;;;15.60;14.07;;;;;;;;;;5046815;28;20215;-82
2021/09/11 05:24:09;;;;;;;19.93;14.97;;;;;;;;;;5083622;28;20183;-79
2021/09/11 05:27:13;;;;;;;16.77;14.60;;;;;;;;;;5084163;28;20190;-80
2021/09/11 05:30:19;;;;;;;18.20;14.30;;;;;;;;;;5092122;28;20235;-79
2021/09/11 05:33:23;;;;;;;14.90;13.40;;;;;;;;;;5085258;28;20186;-78
2021/09/11 05:36:27;;;;;;;16.17;12.80;;;;;;;;;;5097712;28;20179;-80
2021/09/11 05:39:32;;;;;;;14.67;11.90;;;;;;;;;;5097408;28;20545;-79
2021/09/11 05:42:36;;;;;;;14.60;11.53;;;;;;;;;;5107597;28;20220;-80
2021/09/11 05:45:41;;;;;;;12.40;11.10;;;;;;;;;;5097628;28;20630;-78
2021/09/11 05:48:45;;;;;;;11.83;10.63;;;;;;;;;;5109554;28;20225;-78
2021/09/11 05:51:50;;;;;;;12.03;10.03;;;;;;;;;;5111001;28;20208;-78
2021/09/11 05:54:54;;;;;;;11.43;10.33;;;;;;;;;;5099795;28;20178;-78
2021/09/11 05:57:58;;;;;;;13.03;10.53;;;;;;;;;;5110476;28;20175;-78
2021/09/11 06:01:02;;;;;;;10.77;9.70;;;;;;;;;;5086754;28;20221;-79
2021/09/11 06:04:07;;;;;;;11.90;9.93;;;;;;;;;;5110279;28;20187;-79
2021/09/11 06:07:11;;;;;;;21.20;10.13;;;;;;;;;;5110722;28;20178;-79
2021/09/11 06:10:15;;;;;;;14.33;10.77;;;;;;;;;;5108736;28;20207;-79
2021/09/11 06:13:20;;;;;;;10.17;9.20;;;;;;;;;;5108893;28;20186;-78
2021/09/11 06:16:24;;;;;;;12.23;9.80;;;;;;;;;;5085574;28;20199;-79
2021/09/11 06:19:28;;;;;;;13.20;10.70;;;;;;;;;;5097144;28;20175;-78
2021/09/11 06:22:32;;;;;;;16.30;11.10;;;;;;;;;;5098376;28;20206;-79
2021/09/11 06:25:37;;;;;;;11.60;10.20;;;;;;;;;;5108494;28;20175;-78
2021/09/11 06:28:41;;;;;;;11.43;10.10;;;;;;;;;;5086073;28;20217;-79
2021/09/11 06:31:45;;;;;;;11.47;9.80;;;;;;;;;;5108753;28;20224;-78
2021/09/11 06:34:49;;;;;;;14.70;11.40;;;;;;;;;;5097141;28;20179;-78
2021/09/11 06:37:54;;;;;;;12.47;10.00;;;;;;;;;;5097598;28;20175;-78
2021/09/11 06:40:58;;;;;;;11.10;10.00;;;;;;;;;;5108925;28;20206;-79
2021/09/11 06:44:03;;;;;;;13.27;10.47;;;;;;;;;;5109146;28;20679;-77
2021/09/11 06:47:08;;;;;;;12.73;10.03;;;;;;;;;;5096968;28;20185;-79
2021/09/11 06:50:12;;;;;;;10.87;9.43;;;;;;;;;;5095793;28;20221;-78
2021/09/11 06:53:16;;;;;;;11.23;10.13;;;;;;;;;;5096486;28;20175;-78
2021/09/11 06:56:20;;;;;;;30.00;10.87;;;;;;;;;;5096346;28;20183;-79
2021/09/11 06:59:25;;;;;;;10.93;9.23;;;;;;;;;;5107581;28;20179;-78
2021/09/11 07:02:29;;;;;;;9.40;8.50;;;;;;;;;;5096767;28;20218;-78
2021/09/11 07:05:33;;;;;;;10.23;8.33;;;;;;;;;;5108645;28;20183;-78
2021/09/11 07:08:37;;;;;;;10.97;8.63;;;;;;;;;;5095985;28;20198;-78
2021/09/11 07:11:42;;;;;;;13.33;9.50;;;;;;;;;;5085409;28;20214;-78
2021/09/11 07:14:48;;;;;;;12.87;9.63;;;;;;;;;;5107035;28;20206;-78
2021/09/11 07:17:53;;;;;;;11.07;8.53;;;;;;;;;;5094888;28;20194;-78
2021/09/11 07:20:57;;;;;;;11.17;8.83;;;;;;;;;;5090181;28;20219;-78
2021/09/11 07:24:01;;;;;;;10.73;8.90;;;;;;;;;;5105996;28;20183;-77
2021/09/11 07:27:05;;;;;;;9.50;8.50;;;;;;;;;;5091872;28;20183;-77
2021/09/11 07:30:10;;;;;;;9.73;8.40;;;;;;;;;;5089574;28;20211;-78
2021/09/11 07:33:14;;;;;;;11.40;8.67;;;;;;;;;;5105466;28;20202;-78
2021/09/11 07:36:18;;;;;;;11.27;9.50;;;;;;;;;;5105993;28;20652;-77
2021/09/11 07:39:23;;;;;;;13.20;9.50;;;;;;;;;;5107458;28;20170;-78
2021/09/11 07:42:27;;;;;;;10.93;9.33;;;;;;;;;;5113615;28;20222;-79
2021/09/11 07:45:31;;;;;;;17.33;9.20;;;;;;;;;;5091828;28;20190;-78
2021/09/11 07:48:36;;;;;;;9.53;8.40;;;;;;;;;;5111095;28;20198;-78
2021/09/11 07:51:40;;;;;;;10.73;8.13;;;;;;;;;;5099642;28;20211;-79
2021/09/11 07:54:44;;;;;;;8.73;7.83;;;;;;;;;;5087706;28;20171;-78
2021/09/11 07:57:49;;;;;;;9.50;8.50;;;;;;;;;;5103958;28;20183;-79
2021/09/11 08:00:28;;;;;;;8.53;7.70;;;;;;;;;;5101830;27;20808;-77
2021/09/11 08:03:33;;;;;;;10.37;7.67;;;;;;;;;;5083983;28;20205;-79
2021/09/11 08:06:37;;;;;;;12.50;8.20;;;;;;;;;;5103783;28;20705;-78
2021/09/11 08:09:41;;;;;;;8.27;7.47;;;;;;;;;;5095751;28;20174;-78
2021/09/11 08:12:46;;;;;;;10.20;8.97;;;;;;;;;;5081396;28;20214;-79
2021/09/11 08:15:51;;;;;;;8.27;7.47;;;;;;;;;;5085378;28;20179;-78
2021/09/11 08:18:55;;;;;;;8.17;6.90;;;;;;;;;;5085726;28;20222;-78
2021/09/11 08:21:59;;;;;;;12.27;7.43;;;;;;;;;;5076980;28;20230;-79
2021/09/11 08:25:04;;;;;;;9.87;6.90;;;;;;;;;;5089440;28;20179;-79
2021/09/11 08:28:08;;;;;;;8.27;6.90;;;;;;;;;;5077547;28;20182;-80
2021/09/11 08:31:13;;;;;;;9.67;7.27;;;;;;;;;;5067807;28;20215;-78
2021/09/11 08:34:18;;;;;;;9.10;7.07;;;;;;;;;;5089180;28;20203;-78
2021/09/11 08:37:22;;;;;;;8.63;7.10;;;;;;;;;;5103883;28;20199;-78
2021/09/11 08:40:26;;;;;;;8.23;7.03;;;;;;;;;;5089152;28;20203;-77
2021/09/11 08:43:31;;;;;;;7.70;6.83;;;;;;;;;;5104202;28;20190;-78
2021/09/11 08:46:37;;;;;;;17.90;8.00;;;;;;;;;;5104183;28;20190;-77
2021/09/11 08:49:41;;;;;;;10.13;7.50;;;;;;;;;;5079676;28;20175;-79
2021/09/11 08:52:48;;;;;;;7.53;6.77;;;;;;;;;;5088629;28;20206;-78
2021/09/11 08:55:53;;;;;;;8.10;7.20;;;;;;;;;;5087182;28;20186;-78
2021/09/11 08:59:07;;;;;;;7.60;6.73;;;;;;;;;;5099530;28;20226;-79
2021/09/11 09:02:12;;;;;;;7.73;6.80;;;;;;;;;;5085802;28;20580;-78
2021/09/11 09:05:26;;;;;;;8.10;6.00;;;;;;;;;;5085900;28;20195;-79
2021/09/11 09:08:30;;;;;;;9.30;5.50;;;;;;;;;;5087374;28;20180;-79
2021/09/11 09:11:39;;;;;;;5.57;5.07;;;;;;;;;;5064044;28;20223;-79
2021/09/11 09:15:04;;;;;;;7.57;5.70;;;;;;;;;;5060547;28;20191;-78
2021/09/11 09:18:08;;;;;;;6.50;5.90;;;;;;;;;;5061545;28;20176;-79
2021/09/11 09:21:24;;;;;;;6.33;5.73;;;;;;;;;;5070906;28;20215;-79
2021/09/11 09:24:34;;;;;;;6.03;5.43;;;;;;;;;;5072588;28;20192;-78
2021/09/11 09:27:48;;;;;;;5.80;5.20;;;;;;;;;;5060519;28;20180;-79
2021/09/11 09:30:52;;;;;;;12.97;5.47;;;;;;;;;;5058911;28;20215;-78
2021/09/11 09:33:57;;;;;;;5.80;4.83;;;;;;;;;;5073581;28;20179;-78
2021/09/11 09:37:04;;;;;;;6.77;5.17;;;;;;;;;;5061469;28;20179;-79
2021/09/11 09:40:09;;;;;;;6.73;5.43;;;;;;;;;;5071924;28;20195;-78
2021/09/11 09:43:30;;;;;;;5.73;5.13;;;;;;;;;;5059281;28;20187;-78
2021/09/11 09:46:40;;;;;;;7.80;4.93;;;;;;;;;;5085275;28;20192;-78
2021/09/11 09:50:07;;;;;;;4.50;4.10;;;;;;;;;;5051881;28;20180;-79
2021/09/11 09:53:13;;;;;;;5.07;4.57;;;;;;;;;;5061285;28;20627;-78
2021/09/11 09:56:18;;;;;;;6.53;4.60;;;;;;;;;;5066418;28;20186;-80
2021/09/11 09:59:22;;;;;;;6.03;4.87;;;;;;;;;;5066253;28;20223;-79
2021/09/11 10:02:26;;;;;;;6.40;4.77;;;;;;;;;;5066280;28;20226;-79
2021/09/11 10:05:31;;;;;;;11.63;4.33;;;;;;;;;;5077739;28;20180;-79
2021/09/11 10:08:44;;;;;;;7.80;4.00;;;;;;;;;;5056486;28;20177;-80
2021/09/11 10:11:51;;;;;;;5.40;4.53;;;;;;;;;;5067655;28;20215;-79
2021/09/11 10:15:21;;;;;;;5.60;4.17;;;;;;;;;;5068798;28;20174;-79
2021/09/11 10:18:35;;;;;;;27.50;5.47;;;;;;;;;;5078264;28;20517;-79
2021/09/11 10:21:40;;;;;;;4.97;3.93;;;;;;;;;;5078319;28;20202;-81
2021/09/11 10:24:48;;;;;;;4.47;4.07;;;;;;;;;;5079097;28;20188;-79
2021/09/11 10:28:11;;;;;;;5.10;3.83;;;;;;;;;;5091632;28;20650;-79
2021/09/11 10:31:15;;;;;;;5.10;4.00;;;;;;;;;;5079496;28;20213;-79
2021/09/11 10:34:53;;;;;;;4.77;4.27;;;;;;;;;;5067808;28;20182;-79
2021/09/11 10:37:58;;;;;;;4.80;4.40;;;;;;;;;;5055208;28;20183;-79
2021/09/11 10:41:07;;;;;;;5.05;3.70;;;;;;;;;;5067052;28;20222;-79
2021/09/11 10:44:12;;;;;;;5.22;4.10;;;;;;;;;;5066931;28;20196;-79
2021/09/11 10:47:42;;;;;;;4.60;4.18;;;;;;;;;;5077889;28;20177;-79
2021/09/11 10:50:48;;;;;;;3.50;3.20;;;;;;;;;;5066173;28;20217;-81
2021/09/11 10:54:07;;;;;;;4.32;3.75;;;;;;;;;;5077676;28;20189;-80
2021/09/11 10:57:16;;;;;;;4.00;3.63;;;;;;;;;;5078403;28;20185;-81
2021/09/11 11:00:21;;;;;;;8.60;4.13;;;;;;;;;;5065871;28;20225;-80
2021/09/11 11:03:27;;;;;;;4.00;3.60;;;;;;;;;;5077939;28;20172;-80
2021/09/11 11:06:31;;;;;;;4.45;3.88;;;;;;;;;;5054367;28;20180;-80
2021/09/11 11:09:48;;;;;;;5.25;3.70;;;;;;;;;;5077394;28;20169;-79
2021/09/11 11:12:55;;;;;;;5.07;4.03;;;;;;;;;;5066506;28;20178;-80
2021/09/11 11:16:00;;;;;;;3.83;3.50;;;;;;;;;;5055018;28;20635;-81
2021/09/11 11:19:04;;;;;;;6.28;3.72;;;;;;;;;;5090624;28;20182;-81
2021/09/11 11:22:10;;;;;;;6.32;3.67;;;;;;;;;;5066190;28;20220;-81
2021/09/11 11:25:28;;;;;;;4.10;3.45;;;;;;;;;;5078191;28;20540;-79
2021/09/11 11:28:32;;;;;;;4.82;4.00;;;;;;;;;;5065785;28;20184;-80
2021/09/11 11:31:44;;;;;;;5.05;3.92;;;;;;;;;;5066687;28;20195;-79
2021/09/11 11:34:54;;;;;;;6.55;3.72;;;;;;;;;;5054181;28;20185;-81
2021/09/11 11:37:59;;;;;;;5.47;3.70;;;;;;;;;;5058427;28;20201;-80
2021/09/11 11:41:07;;;;;;;4.97;3.70;;;;;;;;;;5069992;28;20582;-79
2021/09/11 11:44:11;;;;;;;15.48;4.45;;;;;;;;;;5043271;28;20656;-81
2021/09/11 11:47:23;;;;;;;6.47;4.13;;;;;;;;;;5069802;28;20199;-80
2021/09/11 11:50:32;;;;;;;4.73;4.23;;;;;;;;;;5055708;28;20179;-80
2021/09/11 11:53:36;;;;;;;5.73;4.40;;;;;;;;;;5055654;28;20176;-79
2021/09/11 11:56:51;;;;;;;5.03;4.53;;;;;;;;;;5034623;28;20205;-79
2021/09/11 12:00:01;;;;;;;4.90;4.47;;;;;;;;;;5069413;28;20217;-80
2021/09/11 12:03:05;;;;;;;10.73;4.30;;;;;;;;;;5033432;28;20199;-79
2021/09/11 12:06:29;;;;;;;6.30;3.63;;;;;;;;;;5045442;28;20175;-79
2021/09/11 12:09:33;;;;;;;6.90;5.03;;;;;;;;;;5068309;28;20180;-80
2021/09/11 12:12:52;;;;;;;4.93;4.47;;;;;;;;;;5045370;28;20212;-80
2021/09/11 12:15:59;;;;;;;6.18;4.70;;;;;;;;;;5045610;28;20178;-80
2021/09/11 12:19:15;;;;;;;4.93;4.40;;;;;;;;;;5055943;28;20202;-79
2021/09/11 12:22:21;;;;;;;4.53;4.13;;;;;;;;;;5068777;28;20578;-80
2021/09/11 12:25:26;;;;;;;4.00;3.67;;;;;;;;;;5034258;28;20196;-80
2021/09/11 12:28:50;;;;;;;6.40;4.57;;;;;;;;;;5034238;28;20187;-80
2021/09/11 12:31:55;;;;;;;5.20;4.65;;;;;;;;;;5056696;28;20560;-80
2021/09/11 12:35:07;;;;;;;5.13;4.17;;;;;;;;;;5057066;28;20175;-79
2021/09/11 12:38:12;;;;;;;4.70;4.30;;;;;;;;;;5034206;28;20187;-80
2021/09/11 12:41:17;;;;;;;4.60;4.13;;;;;;;;;;5045073;28;20226;-80
2021/09/11 12:44:23;;;;;;;4.97;4.47;;;;;;;;;;5044769;28;20191;-79
2021/09/11 12:47:28;;;;;;;9.73;4.13;;;;;;;;;;5060201;28;20189;-79
2021/09/11 12:50:32;;;;;;;5.67;3.87;;;;;;;;;;5059767;28;20202;-79
2021/09/11 12:53:36;;;;;;;6.17;3.70;;;;;;;;;;5048782;28;20183;-80
2021/09/11 12:56:40;;;;;;;3.90;3.40;;;;;;;;;;5071838;28;20184;-80
2021/09/11 12:59:45;;;;;;;4.33;3.07;;;;;;;;;;5060690;28;20219;-80
2021/09/11 13:02:49;;;;;;;3.70;3.33;;;;;;;;;;5049513;28;20181;-81
2021/09/11 13:05:54;;;;;;;3.38;3.08;;;;;;;;;;5037652;28;20174;-79
2021/09/11 13:08:58;;;;;;;3.22;2.92;;;;;;;;;;5048917;28;20176;-81
2021/09/11 13:12:03;;;;;;;3.05;2.45;;;;;;;;;;5049179;28;20211;-79
2021/09/11 13:15:07;;;;;;;4.38;2.40;;;;;;;;;;5049573;28;20513;-79
2021/09/11 13:18:12;;;;;;;2.90;2.25;;;;;;;;;;5038105;28;20182;-80
2021/09/11 13:21:17;;;;;;;4.90;2.42;;;;;;;;;;5037488;28;20237;-79
2021/09/11 13:24:22;;;;;;;4.93;2.70;;;;;;;;;;5048777;28;20601;-79
2021/09/11 13:27:26;;;;;;;5.00;2.40;;;;;;;;;;5049099;28;20207;-80
2021/09/11 13:30:31;;;;;;;6.07;3.30;;;;;;;;;;5052937;28;20191;-79
2021/09/11 13:33:35;;;;;;;4.35;3.90;;;;;;;;;;5056902;28;20197;-80
2021/09/11 13:36:41;;;;;;;3.67;3.28;;;;;;;;;;5062356;28;20190;-80
2021/09/11 13:39:45;;;;;;;4.47;4.03;;;;;;;;;;5060258;28;20198;-79
2021/09/11 13:42:49;;;;;;;3.65;3.25;;;;;;;;;;5054142;28;20193;-81
2021/09/11 13:45:53;;;;;;;3.90;3.00;;;;;;;;;;5079784;28;20195;-79
2021/09/11 13:48:58;;;;;;;3.22;2.80;;;;;;;;;;5059534;28;20195;-79
2021/09/11 13:52:02;;;;;;;3.35;3.05;;;;;;;;;;5038395;28;20221;-81
2021/09/11 13:55:07;;;;;;;3.90;3.20;;;;;;;;;;5037838;28;20183;-80
2021/09/11 13:58:12;;;;;;;3.97;3.33;;;;;;;;;;5049301;28;20213;-79
2021/09/11 14:01:16;;;;;;;6.45;3.33;;;;;;;;;;5051894;28;20224;-81
2021/09/11 14:04:20;;;;;;;8.40;3.40;;;;;;;;;;5049342;28;20191;-81
2021/09/11 14:07:24;;;;;;;3.13;2.80;;;;;;;;;;5066786;28;20180;-79
2021/09/11 14:10:29;;;;;;;3.05;2.75;;;;;;;;;;5084084;28;20180;-79
2021/09/11 14:13:33;;;;;;;3.78;3.00;;;;;;;;;;5070515;28;20529;-79
2021/09/11 14:16:37;;;;;;;3.30;3.00;;;;;;;;;;5058945;28;20199;-80
2021/09/11 14:19:42;;;;;;;3.33;3.00;;;;;;;;;;5066606;28;20183;-79
2021/09/11 14:22:48;;;;;;;3.97;2.72;;;;;;;;;;5057920;28;20689;-80
2021/09/11 14:25:55;;;;;;;3.13;2.83;;;;;;;;;;5046764;28;20190;-79
2021/09/11 14:29:00;;;;;;;2.63;2.42;;;;;;;;;;5034982;28;20187;-79
2021/09/11 14:32:04;;;;;;;8.37;2.77;;;;;;;;;;5070412;28;20217;-79
2021/09/11 14:35:10;;;;;;;4.20;2.80;;;;;;;;;;5062191;28;20200;-80
2021/09/11 14:38:14;;;;;;;5.83;2.70;;;;;;;;;;5059076;28;20196;-79
2021/09/11 14:41:18;;;;;;;4.30;3.10;;;;;;;;;;5056846;28;20223;-79
2021/09/11 14:44:23;;;;;;;3.07;2.73;;;;;;;;;;5055970;28;20203;-79
2021/09/11 14:47:29;;;;;;;4.20;3.20;;;;;;;;;;5070820;28;20184;-79
2021/09/11 14:50:34;;;;;;;5.53;3.07;;;;;;;;;;5067741;28;20526;-79
2021/09/11 14:53:39;;;;;;;8.17;3.53;;;;;;;;;;5046819;28;20195;-80
2021/09/11 14:56:43;;;;;;;3.97;3.43;;;;;;;;;;5046924;28;20181;-80
2021/09/11 14:59:47;;;;;;;4.10;3.40;;;;;;;;;;5065306;28;20217;-80
2021/09/11 15:02:52;;;;;;;5.80;4.70;;;;;;;;;;5050588;28;20190;-79
2021/09/11 15:05:56;;;;;;;4.87;3.80;;;;;;;;;;5035583;28;20684;-79
2021/09/11 15:09:00;;;;;;;4.40;4.00;;;;;;;;;;5040261;28;20628;-79
2021/09/11 15:12:05;;;;;;;10.77;4.57;;;;;;;;;;5063980;28;20683;-79
2021/09/11 15:15:09;;;;;;;7.60;4.63;;;;;;;;;;5051877;28;20189;-78
2021/09/11 15:18:14;;;;;;;6.00;4.70;;;;;;;;;;5033549;28;20192;-79
2021/09/11 15:21:18;;;;;;;7.60;5.80;;;;;;;;;;5065881;28;20224;-79
2021/09/11 15:24:22;;;;;;;5.37;4.87;;;;;;;;;;5054125;28;20197;-81
2021/09/11 15:27:26;;;;;;;31.40;7.03;;;;;;;;;;5056864;28;20203;-80
2021/09/11 15:30:32;;;;;;;6.63;5.90;;;;;;;;;;5058052;28;20177;-80
2021/09/11 15:33:36;;;;;;;8.70;6.33;;;;;;;;;;5067420;28;20528;-79
2021/09/11 15:36:40;;;;;;;7.27;6.57;;;;;;;;;;5044500;28;20203;-80
2021/09/11 15:39:44;;;;;;;6.67;6.07;;;;;;;;;;5049712;28;20200;-80
2021/09/11 15:42:49;;;;;;;9.97;5.57;;;;;;;;;;5051104;28;20184;-80
2021/09/11 15:45:55;;;;;;;6.83;6.13;;;;;;;;;;5052375;28;20200;-79
2021/09/11 15:48:59;;;;;;;6.53;5.93;;;;;;;;;;5046026;28;20200;-80
2021/09/11 15:52:04;;;;;;;8.27;6.20;;;;;;;;;;5069091;28;20231;-79
2021/09/11 15:55:11;;;;;;;8.93;6.90;;;;;;;;;;5048050;28;20193;-80
2021/09/11 15:58:16;;;;;;;6.97;6.23;;;;;;;;;;5047842;28;20200;-79
2021/09/11 16:01:20;;;;;;;6.60;6.00;;;;;;;;;;5072752;28;20222;-81
2021/09/11 16:04:24;;;;;;;7.30;6.60;;;;;;;;;;5042194;28;20188;-82
2021/09/11 16:07:28;;;;;;;7.27;6.33;;;;;;;;;;5062144;28;20192;-82
2021/09/11 16:10:32;;;;;;;6.10;5.50;;;;;;;;;;5052423;28;20386;-80
2021/09/11 16:13:39;;;;;;;13.37;6.97;;;;;;;;;;5053228;28;20523;-79
2021/09/11 16:16:43;;;;;;;6.07;5.47;;;;;;;;;;5040656;28;20188;-81
2021/09/11 16:19:47;;;;;;;7.50;6.27;;;;;;;;;;5065392;28;20188;-81
2021/09/11 16:22:51;;;;;;;7.03;6.13;;;;;;;;;;5057704;28;20184;-80
2021/09/11 16:25:55;;;;;;;13.97;5.63;;;;;;;;;;5052279;28;20187;-80
2021/09/11 16:29:00;;;;;;;8.27;5.57;;;;;;;;;;5071601;28;20204;-81
2021/09/11 16:32:07;;;;;;;6.63;5.80;;;;;;;;;;5056694;28;20219;-81
2021/09/11 16:35:16;;;;;;;10.27;6.20;;;;;;;;;;5049500;28;20191;-80
2021/09/11 16:38:20;;;;;;;10.17;6.10;;;;;;;;;;5065425;28;20180;-80
2021/09/11 16:41:24;;;;;;;9.50;6.67;;;;;;;;;;5075964;28;20222;-81
2021/09/11 16:44:29;;;;;;;9.50;6.73;;;;;;;;;;5080527;28;20192;-81
2021/09/11 16:47:34;;;;;;;11.17;6.43;;;;;;;;;;5044647;28;20184;-81
2021/09/11 16:50:39;;;;;;;11.17;6.47;;;;;;;;;;5033688;28;20184;-82
2021/09/11 16:53:45;;;;;;;7.70;6.90;;;;;;;;;;5049591;28;20188;-80
2021/09/11 16:56:49;;;;;;;8.67;7.43;;;;;;;;;;5077988;28;20192;-81
2021/09/11 16:59:53;;;;;;;7.63;6.93;;;;;;;;;;5054018;28;20215;-79
2021/09/11 17:02:58;;;;;;;10.50;7.43;;;;;;;;;;5045098;28;20195;-80
2021/09/11 17:06:03;;;;;;;11.47;7.33;;;;;;;;;;5052538;28;20200;-80
2021/09/11 17:09:07;;;;;;;10.00;7.20;;;;;;;;;;5042754;28;20184;-80
2021/09/11 17:12:14;;;;;;;8.30;7.47;;;;;;;;;;5057596;28;20212;-79
2021/09/11 17:15:19;;;;;;;10.17;7.17;;;;;;;;;;5087752;22;21499;-84
2021/09/11 17:18:23;;;;;;;10.00;7.47;;;;;;;;;;5010636;28;20201;-84
2021/09/11 17:21:27;;;;;;;13.13;7.97;;;;;;;;;;5013247;28;20205;-85
2021/09/11 17:24:32;;;;;;;12.17;8.13;;;;;;;;;;4980558;28;20525;-84
2021/09/11 17:27:38;;;;;;;10.07;8.00;;;;;;;;;;4975405;28;20189;-84
2021/09/11 17:30:42;;;;;;;11.97;7.67;;;;;;;;;;4994794;28;20178;-84
2021/09/11 17:33:46;;;;;;;8.83;7.97;;;;;;;;;;4975304;28;20186;-83
2021/09/11 17:36:50;;;;;;;8.87;7.97;;;;;;;;;;4971943;28;20222;-83
2021/09/11 17:39:54;;;;;;;13.23;7.90;;;;;;;;;;4982707;28;20182;-83
2021/09/11 17:43:00;;;;;;;10.63;7.73;;;;;;;;;;4971313;28;20218;-83
2021/09/11 17:46:04;;;;;;;8.83;7.83;;;;;;;;;;4989768;28;20217;-83
2021/09/11 17:49:08;;;;;;;9.50;8.57;;;;;;;;;;5001900;28;20188;-83
2021/09/11 17:52:12;;;;;;;11.87;9.43;;;;;;;;;;5001805;28;20545;-83
2021/09/11 17:55:16;;;;;;;10.53;9.53;;;;;;;;;;4960159;28;20222;-84
2021/09/11 17:58:20;;;;;;;11.47;10.33;;;;;;;;;;4981845;28;20179;-83
2021/09/11 18:01:24;;;;;;;10.57;9.10;;;;;;;;;;4993510;28;20237;-83
2021/09/11 18:04:28;;;;;;;9.73;8.73;;;;;;;;;;4990516;28;20205;-83
2021/09/11 18:07:33;;;;;;;10.83;9.17;;;;;;;;;;4990194;28;20193;-83
2021/09/11 18:10:40;;;;;;;11.03;10.00;;;;;;;;;;5001428;28;20506;-83
2021/09/11 18:13:44;;;;;;;13.23;10.30;;;;;;;;;;4990267;28;20204;-83
2021/09/11 18:16:50;;;;;;;12.00;10.23;;;;;;;;;;4979235;28;20236;-82